createdAt,value
2019-03-23T00:01:32.396Z,57.84
2019-03-23T00:04:01.105Z,57.86
2019-03-23T00:06:30.996Z,57.67
2019-03-23T00:08:59.656Z,58.76
2019-03-23T00:11:28.221Z,58.94
2019-03-23T00:13:56.888Z,59.20
2019-03-23T00:16:25.530Z,59.24
2019-03-23T00:18:54.108Z,60.15
2019-03-23T00:21:22.897Z,59.96
2019-03-23T00:23:51.524Z,60.04
2019-03-23T00:26:20.018Z,62.18
2019-03-23T00:28:48.691Z,60.82
2019-03-23T00:31:17.320Z,60.54
2019-03-23T00:33:45.814Z,60.17
2019-03-23T00:36:14.494Z,61.55
2019-03-23T00:38:43.126Z,62.49
2019-03-23T00:41:11.768Z,62.53
2019-03-23T00:43:40.308Z,61.61
2019-03-23T00:46:08.807Z,61.32
2019-03-23T00:48:37.483Z,61.19
2019-03-23T00:51:06.156Z,61.75
2019-03-23T00:53:34.647Z,62.32
2019-03-23T00:56:03.212Z,63.23
2019-03-23T00:58:32.145Z,62.90
2019-03-23T01:01:00.777Z,63.26
2019-03-23T01:03:29.276Z,62.83
2019-03-23T01:05:57.915Z,61.68
2019-03-23T01:08:26.578Z,61.76
2019-03-23T01:10:56.401Z,62.16
2019-03-23T01:13:24.918Z,62.12
2019-03-23T01:15:53.412Z,62.81
2019-03-23T01:18:22.090Z,63.67
2019-03-23T01:20:50.728Z,64.46
2019-03-23T01:23:19.224Z,64.87
2019-03-23T01:25:47.759Z,64.92
2019-03-23T01:28:16.395Z,63.67
2019-03-23T01:30:45.033Z,62.38
2019-03-23T01:33:13.712Z,59.64
2019-03-23T01:35:43.213Z,59.21
2019-03-23T01:38:11.880Z,59.13
2019-03-23T01:40:40.822Z,60.31
2019-03-23T01:43:09.560Z,60.68
2019-03-23T01:45:38.194Z,61.09
2019-03-23T01:48:07.729Z,61.31
2019-03-23T01:50:36.296Z,61.72
2019-03-23T01:53:04.860Z,62.22
2019-03-23T01:55:33.533Z,62.30
2019-03-23T01:58:02.031Z,62.00
2019-03-23T02:00:30.840Z,62.14
2019-03-23T02:02:59.506Z,62.55
2019-03-23T02:05:28.140Z,63.04
2019-03-23T02:07:56.712Z,63.56
2019-03-23T02:10:26.135Z,64.25
2019-03-23T02:12:54.778Z,64.53
2019-03-23T02:15:23.477Z,63.95
2019-03-23T02:17:52.009Z,64.47
2019-03-23T02:20:20.647Z,65.03
2019-03-23T02:22:49.282Z,65.27
2019-03-23T02:25:18.089Z,65.71
2019-03-23T02:27:46.723Z,65.99
2019-03-23T02:30:15.434Z,66.27
2019-03-23T02:32:44.145Z,66.23
2019-03-23T02:35:12.976Z,67.37
2019-03-23T02:37:41.619Z,67.84
2019-03-23T02:40:11.154Z,67.99
2019-03-23T02:42:39.777Z,68.17
2019-03-23T02:45:10.421Z,67.88
2019-03-23T02:47:39.097Z,66.98
2019-03-23T02:50:09.727Z,66.89
2019-03-23T02:52:38.572Z,66.02
2019-03-23T02:55:09.489Z,66.59
2019-03-23T02:57:38.198Z,66.86
2019-03-23T03:00:12.559Z,67.19
2019-03-23T03:02:41.420Z,67.70
2019-03-23T03:05:10.653Z,68.29
2019-03-23T03:07:42.726Z,68.49
2019-03-23T03:10:12.189Z,68.76
2019-03-23T03:12:40.895Z,69.26
2019-03-23T03:15:10.148Z,69.17
2019-03-23T03:17:38.748Z,69.01
2019-03-23T03:20:11.132Z,69.54
2019-03-23T03:22:39.802Z,69.95
2019-03-23T03:25:09.471Z,70.04
2019-03-23T03:27:38.045Z,70.12
2019-03-23T03:30:08.924Z,66.77
2019-03-23T03:32:37.740Z,66.55
2019-03-23T03:35:06.977Z,67.48
2019-03-23T03:37:35.480Z,68.81
2019-03-23T03:40:05.657Z,68.49
2019-03-23T03:42:34.298Z,68.51
2019-03-23T03:45:02.785Z,67.26
2019-03-23T03:47:31.455Z,67.10
2019-03-23T03:50:00.344Z,65.89
2019-03-23T03:52:28.973Z,64.95
2019-03-23T03:54:57.495Z,64.52
2019-03-23T03:57:26.133Z,63.84
2019-03-23T03:59:54.760Z,64.00
2019-03-23T04:02:23.286Z,64.98
2019-03-23T04:04:51.799Z,65.65
2019-03-23T04:07:20.723Z,65.88
2019-03-23T04:09:49.389Z,66.01
2019-03-23T04:12:17.888Z,66.05
2019-03-23T04:14:46.487Z,66.35
2019-03-23T04:17:15.113Z,65.35
2019-03-23T04:19:43.748Z,64.90
2019-03-23T04:22:12.287Z,64.82
2019-03-23T04:24:40.919Z,65.85
2019-03-23T04:27:09.405Z,66.62
2019-03-23T04:29:38.007Z,67.01
2019-03-23T04:32:06.649Z,66.01
2019-03-23T04:34:35.276Z,64.87
2019-03-23T04:37:03.915Z,63.73
2019-03-23T04:39:32.416Z,63.35
2019-03-23T04:42:01.051Z,61.65
2019-03-23T04:44:29.722Z,61.06
2019-03-23T04:46:58.219Z,59.87
2019-03-23T04:49:26.737Z,57.82
2019-03-23T04:51:55.411Z,55.99
2019-03-23T04:54:24.056Z,53.85
2019-03-23T04:56:52.557Z,52.71
2019-03-23T04:59:21.103Z,51.68
2019-03-23T05:01:49.749Z,49.86
2019-03-23T05:04:18.250Z,47.26
2019-03-23T05:06:47.124Z,45.33
2019-03-23T05:09:15.769Z,44.67
2019-03-23T05:11:44.274Z,43.16
2019-03-23T05:14:12.969Z,41.18
2019-03-23T05:16:41.626Z,40.57
2019-03-23T05:19:10.293Z,39.86
2019-03-23T05:21:38.849Z,38.08
2019-03-23T05:24:07.419Z,38.37
2019-03-23T05:26:36.060Z,38.13
2019-03-23T05:29:04.870Z,37.73
2019-03-23T05:31:33.365Z,37.10
2019-03-23T05:34:01.939Z,37.04
2019-03-23T05:36:30.617Z,36.72
2019-03-23T05:38:59.187Z,36.17
2019-03-23T05:41:27.873Z,35.25
2019-03-23T05:43:56.553Z,34.82
2019-03-23T05:46:25.124Z,33.37
2019-03-23T05:48:53.628Z,32.28
2019-03-23T05:51:22.312Z,33.30
2019-03-23T05:53:50.952Z,33.27
2019-03-23T05:56:19.519Z,32.86
2019-03-23T05:58:48.060Z,32.86
2019-03-23T06:01:16.781Z,31.98
2019-03-23T06:03:45.415Z,31.86
2019-03-23T06:06:14.034Z,30.88
2019-03-23T06:08:42.609Z,29.99
2019-03-23T06:11:11.248Z,29.99
2019-03-23T06:13:39.940Z,29.36
2019-03-23T06:16:08.439Z,29.96
2019-03-23T06:18:36.940Z,29.19
2019-03-23T06:21:05.644Z,29.45
2019-03-23T06:23:34.285Z,28.29
2019-03-23T06:26:02.928Z,28.12
2019-03-23T06:28:31.477Z,26.95
2019-03-23T06:31:00.112Z,27.29
2019-03-23T06:33:28.759Z,26.72
2019-03-23T06:35:57.298Z,26.63
2019-03-23T06:38:25.802Z,26.62
2019-03-23T06:40:54.439Z,25.55
2019-03-23T06:43:23.145Z,26.15
2019-03-23T06:45:51.645Z,25.77
2019-03-23T06:48:20.143Z,24.97
2019-03-23T06:50:48.857Z,25.22
2019-03-23T06:53:17.518Z,26.30
2019-03-23T06:55:46.001Z,26.56
2019-03-23T06:58:14.544Z,26.81
2019-03-23T07:00:43.189Z,28.57
2019-03-23T07:03:11.762Z,29.51
2019-03-23T07:05:40.434Z,30.22
2019-03-23T07:08:09.071Z,28.74
2019-03-23T07:10:37.575Z,27.82
2019-03-23T07:13:06.122Z,27.30
2019-03-23T07:15:34.772Z,26.61
2019-03-23T07:18:03.413Z,26.25
2019-03-23T07:20:31.965Z,25.74
2019-03-23T07:23:00.463Z,24.95
2019-03-23T07:25:29.101Z,25.44
2019-03-23T07:27:57.794Z,25.86
2019-03-23T07:30:26.295Z,26.40
2019-03-23T07:32:54.798Z,27.53
2019-03-23T07:35:23.473Z,28.41
2019-03-23T07:37:52.113Z,28.98
2019-03-23T07:40:20.752Z,29.00
2019-03-23T07:42:49.443Z,28.84
2019-03-23T07:45:18.075Z,28.49
2019-03-23T07:47:46.572Z,29.06
2019-03-23T07:50:15.755Z,28.43
2019-03-23T07:52:45.314Z,28.81
2019-03-23T07:55:15.448Z,28.36
2019-03-23T07:57:45.318Z,28.47
2019-03-23T08:00:19.347Z,28.37
2019-03-23T08:02:48.083Z,28.35
2019-03-23T08:05:16.768Z,28.49
2019-03-23T08:07:45.505Z,27.98
2019-03-23T08:10:19.691Z,27.40
2019-03-23T08:12:48.370Z,27.09
2019-03-23T08:15:17.039Z,26.96
2019-03-23T08:17:45.535Z,27.55
2019-03-23T08:20:14.216Z,26.37
2019-03-23T08:22:42.884Z,26.23
2019-03-23T08:25:11.523Z,25.29
2019-03-23T08:27:41.637Z,25.41
2019-03-23T08:30:10.444Z,25.83
2019-03-23T08:32:38.944Z,26.25
2019-03-23T08:35:07.616Z,25.66
2019-03-23T08:37:36.260Z,25.75
2019-03-23T08:40:06.801Z,24.96
2019-03-23T08:42:35.406Z,25.22
2019-03-23T08:45:05.248Z,25.64
2019-03-23T08:47:33.887Z,26.37
2019-03-23T08:50:02.496Z,26.14
2019-03-23T08:52:30.986Z,26.31
2019-03-23T08:54:59.623Z,26.12
2019-03-23T08:57:28.302Z,25.57
2019-03-23T08:59:56.790Z,24.88
2019-03-23T09:02:25.422Z,24.62
2019-03-23T09:04:53.967Z,25.73
2019-03-23T09:07:22.533Z,25.89
2019-03-23T09:09:58.795Z,26.19
2019-03-23T09:12:21.588Z,26.56
2019-03-23T09:14:50.064Z,27.98
2019-03-23T09:17:18.629Z,27.78
2019-03-23T09:19:47.303Z,28.20
2019-03-23T09:22:15.931Z,29.03
2019-03-23T09:24:44.488Z,26.38
2019-03-23T09:27:13.034Z,27.53
2019-03-23T09:29:41.663Z,27.76
2019-03-23T09:32:10.297Z,26.44
2019-03-23T09:34:38.838Z,28.00
2019-03-23T09:37:07.403Z,27.10
2019-03-23T09:39:36.033Z,27.61
2019-03-23T09:42:07.039Z,26.97
2019-03-23T09:44:35.182Z,27.87
2019-03-23T09:47:03.947Z,29.28
2019-03-23T09:49:32.550Z,29.46
2019-03-23T09:52:01.048Z,29.12
2019-03-23T09:54:29.692Z,28.66
2019-03-23T09:56:59.619Z,27.71
2019-03-23T09:59:28.298Z,26.85
2019-03-23T10:01:56.857Z,26.52
2019-03-23T10:04:25.523Z,26.63
2019-03-23T10:06:54.156Z,27.38
2019-03-23T10:09:22.650Z,27.31
2019-03-23T10:11:51.176Z,27.07
2019-03-23T10:14:19.803Z,27.02
2019-03-23T10:16:48.432Z,27.35
2019-03-23T10:19:16.959Z,27.76
2019-03-23T10:21:45.606Z,27.84
2019-03-23T10:24:14.168Z,27.97
2019-03-23T10:26:42.713Z,27.96
2019-03-23T10:29:11.341Z,28.52
2019-03-23T10:31:39.977Z,28.04
2019-03-23T10:34:08.507Z,27.93
2019-03-23T10:36:37.007Z,27.74
2019-03-23T10:39:06.338Z,28.26
2019-03-23T10:41:35.006Z,28.53
2019-03-23T10:44:03.491Z,28.52
2019-03-23T10:46:31.986Z,27.72
2019-03-23T10:49:00.647Z,27.85
2019-03-23T10:51:29.277Z,27.57
2019-03-23T10:53:57.772Z,27.94
2019-03-23T10:56:26.300Z,28.21
2019-03-23T10:58:54.932Z,28.28
2019-03-23T11:01:23.568Z,28.71
2019-03-23T11:03:52.496Z,29.03
2019-03-23T11:06:21.137Z,28.49
2019-03-23T11:08:49.635Z,28.08
2019-03-23T11:11:18.171Z,27.79
2019-03-23T11:13:46.802Z,27.40
2019-03-23T11:16:15.433Z,27.00
2019-03-23T11:18:43.959Z,27.90
2019-03-23T11:21:12.445Z,28.61
2019-03-23T11:23:41.075Z,28.70
2019-03-23T11:26:09.751Z,28.51
2019-03-23T11:28:38.318Z,28.81
2019-03-23T11:31:06.809Z,29.03
2019-03-23T11:33:35.474Z,29.12
2019-03-23T11:36:04.112Z,29.36
2019-03-23T11:38:32.602Z,28.91
2019-03-23T11:41:01.209Z,27.98
2019-03-23T11:43:29.928Z,28.02
2019-03-23T11:45:58.683Z,27.44
2019-03-23T11:48:27.380Z,27.00
2019-03-23T11:50:55.876Z,26.97
2019-03-23T11:53:24.509Z,26.48
2019-03-23T11:55:53.361Z,26.01
2019-03-23T11:58:21.860Z,25.37
2019-03-23T12:00:50.496Z,24.97
2019-03-23T12:03:19.267Z,26.41
2019-03-23T12:05:47.903Z,27.60
2019-03-23T12:08:16.398Z,27.41
2019-03-23T12:10:44.924Z,27.07
2019-03-23T12:13:13.567Z,26.84
2019-03-23T12:15:42.192Z,26.86
2019-03-23T12:18:10.722Z,26.32
2019-03-23T12:20:39.355Z,25.92
2019-03-23T12:23:07.848Z,25.58
2019-03-23T12:25:36.452Z,25.88
2019-03-23T12:28:05.034Z,25.66
2019-03-23T12:30:33.669Z,25.21
2019-03-23T12:33:02.407Z,25.21
2019-03-23T12:35:30.900Z,26.00
2019-03-23T12:37:59.536Z,26.29
2019-03-23T12:40:28.205Z,26.27
2019-03-23T12:42:56.705Z,26.22
2019-03-23T12:45:25.207Z,26.27
2019-03-23T12:47:53.885Z,26.57
2019-03-23T12:50:22.521Z,26.44
2019-03-23T12:52:51.017Z,26.77
2019-03-23T12:55:19.546Z,26.36
2019-03-23T12:57:48.176Z,26.60
2019-03-23T13:00:17.112Z,26.29
2019-03-23T13:02:45.785Z,26.08
2019-03-23T13:05:14.418Z,25.76
2019-03-23T13:07:43.051Z,25.16
2019-03-23T13:10:13.478Z,25.48
2019-03-23T13:12:42.109Z,25.74
2019-03-23T13:15:15.023Z,26.49
2019-03-23T13:17:43.620Z,27.35
2019-03-23T13:20:12.908Z,27.48
2019-03-23T13:22:41.561Z,27.39
2019-03-23T13:25:10.743Z,27.09
2019-03-23T13:27:39.241Z,26.59
2019-03-23T13:30:13.401Z,26.87
2019-03-23T13:32:42.064Z,26.78
2019-03-23T13:35:11.299Z,26.79
2019-03-23T13:37:39.936Z,27.09
2019-03-23T13:40:10.534Z,26.94
2019-03-23T13:42:39.259Z,27.19
2019-03-23T13:45:09.166Z,27.31
2019-03-23T13:47:38.694Z,27.68
2019-03-23T13:50:09.574Z,27.64
2019-03-23T13:52:38.422Z,27.86
2019-03-23T13:55:07.946Z,28.04
2019-03-23T13:57:36.583Z,27.58
2019-03-23T14:00:10.124Z,27.65
2019-03-23T14:02:38.737Z,27.34
2019-03-23T14:05:15.646Z,26.96
2019-03-23T14:07:37.852Z,26.69
2019-03-23T14:10:06.820Z,26.91
2019-03-23T14:12:35.400Z,27.04
2019-03-23T14:15:04.936Z,26.96
2019-03-23T14:17:33.602Z,26.12
2019-03-23T14:20:02.129Z,26.04
2019-03-23T14:22:30.771Z,26.26
2019-03-23T14:24:59.440Z,26.29
2019-03-23T14:27:27.930Z,26.32
2019-03-23T14:29:56.431Z,26.47
2019-03-23T14:32:25.097Z,26.29
2019-03-23T14:34:53.725Z,26.22
2019-03-23T14:37:22.230Z,24.60
2019-03-23T14:39:50.822Z,21.21
2019-03-23T14:42:19.456Z,21.81
2019-03-23T14:44:48.204Z,19.02
2019-03-23T14:47:16.728Z,18.81
2019-03-23T14:49:45.251Z,18.92
2019-03-23T14:52:13.889Z,19.74
2019-03-23T14:54:42.555Z,19.23
2019-03-23T14:57:11.046Z,18.69
2019-03-23T14:59:39.677Z,19.12
2019-03-23T15:02:08.289Z,19.09
2019-03-23T15:04:36.779Z,18.64
2019-03-23T15:07:05.415Z,19.25
2019-03-23T15:09:34.099Z,20.08
2019-03-23T15:12:02.585Z,18.77
2019-03-23T15:14:31.074Z,17.85
2019-03-23T15:16:59.748Z,18.04
2019-03-23T15:19:28.381Z,18.46
2019-03-23T15:21:56.947Z,18.69
2019-03-23T15:24:25.560Z,18.77
2019-03-23T15:26:54.197Z,18.82
2019-03-23T15:29:22.826Z,19.17
2019-03-23T15:31:51.484Z,19.36
2019-03-23T15:34:19.974Z,19.79
2019-03-23T15:36:48.599Z,19.31
2019-03-23T15:39:17.125Z,19.03
2019-03-23T15:41:45.764Z,19.50
2019-03-23T15:44:14.396Z,19.99
2019-03-23T15:46:42.917Z,21.03
2019-03-23T15:49:11.406Z,21.62
2019-03-23T15:51:40.039Z,22.09
2019-03-23T15:54:08.710Z,21.87
2019-03-23T15:56:37.201Z,21.82
2019-03-23T15:59:05.773Z,22.12
2019-03-23T16:01:35.548Z,22.68
2019-03-23T16:04:04.188Z,22.86
2019-03-23T16:06:32.681Z,23.09
2019-03-23T16:09:01.275Z,23.53
2019-03-23T16:11:29.908Z,23.36
2019-03-23T16:13:58.541Z,24.00
2019-03-23T16:16:27.083Z,24.54
2019-03-23T16:18:55.723Z,25.12
2019-03-23T16:21:24.213Z,25.27
2019-03-23T16:23:52.748Z,25.72
2019-03-23T16:26:21.382Z,26.16
2019-03-23T16:28:50.085Z,26.36
2019-03-23T16:31:18.609Z,26.46
2019-03-23T16:33:47.108Z,26.37
2019-03-23T16:36:15.742Z,24.67
2019-03-23T16:38:44.609Z,24.18
2019-03-23T16:41:13.098Z,24.03
2019-03-23T16:43:41.589Z,24.16
2019-03-23T16:46:10.265Z,23.74
2019-03-23T16:48:38.972Z,24.07
2019-03-23T16:51:07.468Z,24.36
2019-03-23T16:53:36.022Z,23.98
2019-03-23T16:56:04.629Z,23.75
2019-03-23T16:58:33.267Z,23.48
2019-03-23T17:01:01.860Z,23.75
2019-03-23T17:03:30.361Z,24.05
2019-03-23T17:05:59.084Z,24.11
2019-03-23T17:08:27.750Z,24.10
2019-03-23T17:10:56.352Z,24.39
2019-03-23T17:13:24.976Z,24.58
2019-03-23T17:15:53.669Z,24.71
2019-03-23T17:18:22.295Z,25.01
2019-03-23T17:20:50.784Z,25.25
2019-03-23T17:23:19.410Z,25.56
2019-03-23T17:25:48.044Z,25.76
2019-03-23T17:28:16.674Z,25.91
2019-03-23T17:30:45.204Z,26.22
2019-03-23T17:33:13.696Z,26.35
2019-03-23T17:35:42.329Z,26.46
2019-03-23T17:38:10.869Z,26.64
2019-03-23T17:40:39.518Z,26.87
2019-03-23T17:43:08.151Z,27.09
2019-03-23T17:45:37.790Z,27.47
2019-03-23T17:48:06.428Z,27.66
2019-03-23T17:50:35.122Z,27.99
2019-03-23T17:53:03.792Z,28.13
2019-03-23T17:55:32.292Z,28.68
2019-03-23T17:58:00.851Z,32.20
2019-03-23T18:00:30.297Z,34.05
2019-03-23T18:02:59.181Z,35.07
2019-03-23T18:05:27.741Z,35.82
2019-03-23T18:07:56.358Z,36.13
2019-03-23T18:10:24.987Z,36.06
2019-03-23T18:12:53.627Z,36.57
2019-03-23T18:15:22.160Z,36.94
2019-03-23T18:17:51.329Z,37.68
2019-03-23T18:20:19.865Z,37.79
2019-03-23T18:22:48.401Z,38.77
2019-03-23T18:25:17.036Z,39.31
2019-03-23T18:27:45.666Z,39.92
2019-03-23T18:30:34.408Z,40.02
2019-03-23T18:33:03.467Z,40.58
2019-03-23T18:35:32.108Z,41.00
2019-03-23T18:38:01.095Z,41.13
2019-03-23T18:40:29.825Z,41.39
2019-03-23T18:42:58.381Z,41.50
2019-03-23T18:45:27.352Z,41.30
2019-03-23T18:47:55.986Z,40.26
2019-03-23T18:50:24.625Z,40.59
2019-03-23T18:52:54.419Z,40.86
2019-03-23T18:55:23.067Z,40.75
2019-03-23T18:57:52.006Z,40.52
2019-03-23T19:00:35.581Z,41.46
2019-03-23T19:03:04.213Z,40.90
2019-03-23T19:05:32.777Z,41.64
2019-03-23T19:08:01.352Z,42.03
2019-03-23T19:10:29.985Z,42.40
2019-03-23T19:12:58.666Z,42.70
2019-03-23T19:15:27.309Z,43.57
2019-03-23T19:17:55.940Z,43.64
2019-03-23T19:20:24.796Z,44.82
2019-03-23T19:22:53.493Z,44.89
2019-03-23T19:25:21.992Z,44.86
2019-03-23T19:27:50.751Z,44.95
2019-03-23T19:30:19.798Z,45.01
2019-03-23T19:32:48.435Z,44.96
2019-03-23T19:35:16.979Z,45.21
2019-03-23T19:37:45.652Z,45.17
2019-03-23T19:40:15.192Z,45.00
2019-03-23T19:42:43.799Z,44.61
2019-03-23T19:45:12.443Z,44.78
2019-03-23T19:47:41.128Z,44.33
2019-03-23T19:50:10.519Z,43.47
2019-03-23T19:52:39.103Z,43.80
2019-03-23T19:55:08.439Z,44.04
2019-03-23T19:57:37.117Z,44.14
2019-03-23T20:00:08.662Z,43.97
2019-03-23T20:02:37.306Z,44.67
2019-03-23T20:05:07.082Z,45.25
2019-03-23T20:07:35.723Z,46.02
2019-03-23T20:10:06.765Z,46.20
2019-03-23T20:12:35.311Z,46.86
2019-03-23T20:15:05.864Z,47.87
2019-03-23T20:17:34.363Z,48.06
2019-03-23T20:20:03.497Z,48.38
2019-03-23T20:22:32.142Z,49.51
2019-03-23T20:25:00.653Z,51.15
2019-03-23T20:27:29.180Z,51.62
2019-03-23T20:29:57.814Z,52.68
2019-03-23T20:32:26.471Z,53.88
2019-03-23T20:34:55.078Z,54.92
2019-03-23T20:37:23.583Z,55.36
2019-03-23T20:39:52.223Z,55.65
2019-03-23T20:42:20.899Z,56.52
2019-03-23T20:44:49.404Z,56.86
2019-03-23T20:47:17.976Z,56.97
2019-03-23T20:49:47.317Z,57.28
2019-03-23T20:52:15.954Z,57.48
2019-03-23T20:54:44.587Z,58.06
2019-03-23T20:57:23.191Z,58.64
2019-03-23T20:59:43.860Z,58.61
2019-03-23T21:02:12.358Z,58.79
2019-03-23T21:04:41.030Z,59.26
2019-03-23T21:07:09.669Z,59.67
2019-03-23T21:09:38.178Z,59.52
2019-03-23T21:12:06.807Z,59.66
2019-03-23T21:14:35.444Z,60.05
2019-03-23T21:17:04.081Z,60.53
2019-03-23T21:19:32.631Z,60.59
2019-03-23T21:22:01.135Z,60.46
2019-03-23T21:24:29.771Z,60.94
2019-03-23T21:26:58.441Z,60.75
2019-03-23T21:29:27.024Z,60.96
2019-03-23T21:31:55.518Z,61.25
2019-03-23T21:34:24.383Z,61.35
2019-03-23T21:36:52.891Z,61.30
2019-03-23T21:39:21.456Z,61.41
2019-03-23T21:41:50.133Z,61.53
2019-03-23T21:44:18.635Z,61.78
2019-03-23T21:46:47.134Z,61.98
2019-03-23T21:49:15.804Z,62.38
2019-03-23T21:51:44.429Z,62.52
2019-03-23T21:54:12.927Z,62.61
2019-03-23T21:56:41.509Z,63.07
2019-03-23T21:59:10.142Z,62.98
2019-03-23T22:01:38.801Z,62.97
2019-03-23T22:04:07.364Z,62.84
2019-03-23T22:06:35.857Z,62.64
2019-03-23T22:09:06.290Z,62.66
2019-03-23T22:11:35.172Z,63.09
2019-03-23T22:14:03.739Z,63.11
2019-03-23T22:16:32.309Z,63.42
2019-03-23T22:19:00.980Z,63.52
2019-03-23T22:21:29.616Z,63.44
2019-03-23T22:23:58.111Z,63.59
2019-03-23T22:26:26.650Z,63.70
2019-03-23T22:28:55.281Z,64.23
2019-03-23T22:31:23.917Z,63.90
2019-03-23T22:33:52.478Z,63.60
2019-03-23T22:36:20.980Z,63.80
2019-03-23T22:38:49.611Z,64.08
2019-03-23T22:41:18.274Z,61.78
2019-03-23T22:43:46.810Z,60.70
2019-03-23T22:46:15.393Z,61.47
2019-03-23T22:48:44.068Z,61.89
2019-03-23T22:51:12.710Z,61.88
2019-03-23T22:53:41.201Z,61.87
2019-03-23T22:56:09.874Z,60.82
2019-03-23T22:58:38.436Z,60.28
2019-03-23T23:01:07.062Z,59.77
2019-03-23T23:03:35.722Z,59.34
2019-03-23T23:06:04.465Z,58.71
2019-03-23T23:08:32.960Z,58.48
2019-03-23T23:11:01.496Z,58.37
2019-03-23T23:13:30.122Z,58.37
2019-03-23T23:15:58.756Z,58.37
2019-03-23T23:18:27.352Z,58.71
2019-03-23T23:20:56.316Z,58.66
2019-03-23T23:23:24.961Z,58.83
2019-03-23T23:25:53.638Z,59.67
2019-03-23T23:28:22.229Z,60.45
2019-03-23T23:30:50.794Z,61.11
2019-03-23T23:33:19.639Z,61.81
2019-03-23T23:35:48.138Z,62.09
2019-03-23T23:38:16.770Z,62.34
2019-03-23T23:40:45.443Z,63.24
2019-03-23T23:43:13.932Z,63.31
2019-03-23T23:45:42.504Z,64.22
2019-03-23T23:48:11.180Z,65.00
2019-03-23T23:50:39.818Z,65.41
2019-03-23T23:53:08.317Z,65.92
2019-03-23T23:55:36.858Z,66.34
2019-03-23T23:58:05.707Z,66.46
